createdAt,value
2018-02-12T00:02:00.272Z,88.28
2018-02-12T00:04:27.733Z,88.26
2018-02-12T00:06:55.168Z,88.22
2018-02-12T00:09:22.605Z,87.95
2018-02-12T00:11:50.046Z,88.55
2018-02-12T00:14:17.505Z,88.76
2018-02-12T00:16:44.948Z,88.89
2018-02-12T00:19:12.373Z,88.87
2018-02-12T00:21:39.799Z,88.45
2018-02-12T00:24:07.220Z,88.08
2018-02-12T00:29:08.370Z,88.57
2018-02-12T00:31:35.779Z,88.74
2018-02-12T00:34:03.222Z,88.57
2018-02-12T00:36:30.665Z,88.92
2018-02-12T00:38:58.089Z,88.68
2018-02-12T00:41:25.511Z,89.51
2018-02-12T00:43:52.955Z,89.49
2018-02-12T00:46:20.400Z,89.61
2018-02-12T00:48:47.883Z,91.50
2018-02-12T00:51:15.293Z,92.57
2018-02-12T00:53:42.738Z,92.97
2018-02-12T00:56:10.165Z,93.38
2018-02-12T00:58:37.580Z,93.34
2018-02-12T01:01:05.010Z,93.64
2018-02-12T01:03:32.424Z,94.21
2018-02-12T01:05:59.836Z,94.60
2018-02-12T01:08:27.260Z,94.68
2018-02-12T01:10:54.675Z,94.93
2018-02-12T01:13:22.100Z,95.67
2018-02-12T01:15:49.519Z,95.75
2018-02-12T01:18:16.952Z,95.54
2018-02-12T01:20:44.409Z,95.39
2018-02-12T01:23:11.821Z,95.67
2018-02-12T01:25:39.255Z,95.68
2018-02-12T01:28:06.693Z,95.90
2018-02-12T01:30:34.136Z,95.74
2018-02-12T01:33:01.588Z,95.52
2018-02-12T01:35:29.001Z,95.60
2018-02-12T01:37:56.434Z,95.05
2018-02-12T01:40:23.912Z,94.95
2018-02-12T01:42:51.342Z,94.80
2018-02-12T01:45:18.774Z,94.80
2018-02-12T01:47:46.188Z,94.89
2018-02-12T01:50:19.416Z,95.05
2018-02-12T01:52:46.869Z,95.34
2018-02-12T01:55:14.364Z,95.14
2018-02-12T01:57:41.800Z,94.91
2018-02-12T02:00:09.254Z,94.49
2018-02-12T02:02:36.670Z,94.31
2018-02-12T02:05:04.092Z,93.93
2018-02-12T02:07:31.514Z,94.08
2018-02-12T02:09:58.951Z,94.28
2018-02-12T02:12:26.372Z,94.58
2018-02-12T02:14:53.831Z,94.72
2018-02-12T02:17:21.280Z,94.01
2018-02-12T02:19:48.690Z,94.12
2018-02-12T02:22:16.138Z,93.99
2018-02-12T02:24:43.571Z,93.84
2018-02-12T02:27:11.053Z,93.25
2018-02-12T02:29:38.501Z,93.47
2018-02-12T02:32:05.942Z,93.75
2018-02-12T02:34:33.372Z,93.61
2018-02-12T02:37:00.837Z,93.54
2018-02-12T02:39:28.267Z,93.41
2018-02-12T02:41:55.682Z,92.83
2018-02-12T02:44:23.122Z,92.92
2018-02-12T02:46:50.548Z,92.67
2018-02-12T02:49:17.964Z,92.92
2018-02-12T02:51:45.434Z,92.95
2018-02-12T02:54:12.935Z,92.98
2018-02-12T02:56:40.346Z,93.04
2018-02-12T02:59:07.764Z,93.01
2018-02-12T03:01:35.192Z,92.90
2018-02-12T03:04:02.669Z,93.04
2018-02-12T03:06:30.105Z,92.85
2018-02-12T03:08:57.539Z,92.19
2018-02-12T03:11:25.016Z,91.69
2018-02-12T03:13:52.421Z,91.83
2018-02-12T03:16:19.872Z,92.06
2018-02-12T03:18:47.280Z,92.30
2018-02-12T03:21:14.724Z,91.93
2018-02-12T03:23:42.184Z,91.52
2018-02-12T03:26:09.597Z,91.65
2018-02-12T03:28:37.020Z,91.71
2018-02-12T03:31:04.461Z,91.53
2018-02-12T03:33:31.916Z,91.48
2018-02-12T03:35:59.327Z,91.48
2018-02-12T03:38:26.779Z,91.38
2018-02-12T03:40:54.206Z,91.61
2018-02-12T03:43:21.652Z,91.44
2018-02-12T03:45:49.116Z,91.45
2018-02-12T03:48:16.549Z,91.16
2018-02-12T03:50:43.964Z,90.93
2018-02-12T03:53:11.428Z,91.12
2018-02-12T03:55:38.889Z,91.27
2018-02-12T03:58:06.299Z,91.04
2018-02-12T04:00:33.709Z,91.34
2018-02-12T04:03:01.141Z,91.20
2018-02-12T04:05:28.605Z,91.30
2018-02-12T04:07:56.025Z,91.49
2018-02-12T04:10:23.460Z,91.43
2018-02-12T04:12:50.929Z,91.28
2018-02-12T04:15:18.387Z,90.75
2018-02-12T04:17:45.883Z,90.48
2018-02-12T04:20:13.316Z,90.37
2018-02-12T04:22:40.740Z,91.25
2018-02-12T04:25:08.160Z,90.74
2018-02-12T04:27:35.604Z,90.69
2018-02-12T04:30:03.005Z,89.80
2018-02-12T04:32:30.444Z,90.78
2018-02-12T04:34:57.872Z,90.55
2018-02-12T04:37:25.284Z,90.72
2018-02-12T04:39:52.755Z,90.53
2018-02-12T04:42:20.188Z,89.85
2018-02-12T04:44:47.658Z,89.78
2018-02-12T04:47:15.076Z,89.22
2018-02-12T04:49:42.511Z,89.91
2018-02-12T04:52:09.936Z,89.48
2018-02-12T04:54:37.376Z,89.55
2018-02-12T04:57:04.789Z,89.92
2018-02-12T04:59:32.217Z,89.46
2018-02-12T05:01:59.640Z,90.33
2018-02-12T05:04:27.107Z,89.96
2018-02-12T05:06:54.577Z,89.16
2018-02-12T05:09:22.020Z,89.44
2018-02-12T05:11:49.482Z,89.94
2018-02-12T05:14:16.917Z,88.84
2018-02-12T05:16:44.400Z,89.44
2018-02-12T05:19:11.816Z,89.67
2018-02-12T05:21:39.244Z,89.81
2018-02-12T05:24:06.672Z,89.58
2018-02-12T05:26:34.101Z,89.37
2018-02-12T05:29:01.576Z,89.88
2018-02-12T05:31:29.009Z,90.08
2018-02-12T05:33:56.444Z,89.38
2018-02-12T05:36:23.902Z,90.04
2018-02-12T05:38:51.324Z,89.82
2018-02-12T05:41:18.752Z,89.86
2018-02-12T05:43:46.165Z,89.96
2018-02-12T05:46:13.592Z,90.69
2018-02-12T05:48:41.024Z,90.97
2018-02-12T05:51:08.472Z,90.95
2018-02-12T05:53:35.924Z,90.87
2018-02-12T05:56:03.344Z,90.68
2018-02-12T05:58:30.809Z,90.22
2018-02-12T06:00:58.228Z,89.93
2018-02-12T06:03:25.676Z,89.49
2018-02-12T06:05:56.582Z,90.03
2018-02-12T06:08:23.996Z,90.00
2018-02-12T06:10:51.443Z,89.96
2018-02-12T06:13:18.893Z,90.21
2018-02-12T06:15:46.328Z,90.61
2018-02-12T06:18:13.743Z,90.56
2018-02-12T06:20:41.152Z,90.59
2018-02-12T06:23:08.582Z,90.74
2018-02-12T06:25:36.071Z,91.31
2018-02-12T06:28:03.464Z,91.11
2018-02-12T06:30:30.896Z,91.52
2018-02-12T06:32:58.328Z,91.51
2018-02-12T06:35:25.797Z,91.16
2018-02-12T06:37:53.204Z,91.35
2018-02-12T06:40:20.644Z,91.39
2018-02-12T06:42:48.108Z,91.39
2018-02-12T06:45:15.599Z,91.17
2018-02-12T06:47:43.044Z,90.93
2018-02-12T06:50:10.493Z,91.22
2018-02-12T06:52:37.917Z,91.13
2018-02-12T06:55:05.340Z,91.07
2018-02-12T06:57:32.816Z,91.30
2018-02-12T07:00:00.345Z,91.32
2018-02-12T07:02:27.837Z,91.21
2018-02-12T07:04:55.252Z,91.21
2018-02-12T07:07:22.710Z,91.16
2018-02-12T07:09:50.144Z,91.37
2018-02-12T07:12:17.691Z,91.36
2018-02-12T07:14:45.349Z,90.89
2018-02-12T07:17:12.789Z,91.08
2018-02-12T07:19:40.213Z,90.31
2018-02-12T07:22:07.645Z,91.15
2018-02-12T07:24:35.127Z,91.18
2018-02-12T07:27:02.540Z,91.17
2018-02-12T07:29:32.756Z,90.88
2018-02-12T07:32:00.226Z,90.17
2018-02-12T07:34:27.665Z,90.75
2018-02-12T07:36:55.112Z,90.42
2018-02-12T07:39:22.610Z,90.20
2018-02-12T07:41:50.061Z,90.01
2018-02-12T07:44:17.481Z,90.28
2018-02-12T07:46:44.901Z,89.89
2018-02-12T07:49:12.333Z,89.95
2018-02-12T07:51:39.909Z,89.77
2018-02-12T07:54:07.387Z,89.58
2018-02-12T07:56:34.797Z,89.70
2018-02-12T07:59:02.242Z,89.82
2018-02-12T08:01:29.758Z,89.50
2018-02-12T08:03:57.180Z,89.85
2018-02-12T08:06:24.666Z,89.76
2018-02-12T08:08:52.079Z,89.30
2018-02-12T08:11:19.521Z,88.88
2018-02-12T08:13:47.636Z,89.56
2018-02-12T08:16:15.666Z,89.72
2018-02-12T08:18:43.104Z,89.21
2018-02-12T08:21:10.598Z,89.14
2018-02-12T08:23:38.024Z,88.97
2018-02-12T08:26:05.504Z,88.23
2018-02-12T08:28:32.940Z,88.16
2018-02-12T08:31:00.370Z,87.75
2018-02-12T08:33:27.812Z,87.50
2018-02-12T08:35:55.289Z,87.19
2018-02-12T08:38:22.784Z,87.13
2018-02-12T08:40:50.228Z,86.80
2018-02-12T08:43:17.653Z,86.52
2018-02-12T08:45:45.170Z,86.30
2018-02-12T08:48:12.600Z,86.85
2018-02-12T08:50:40.086Z,85.87
2018-02-12T08:53:07.503Z,86.20
2018-02-12T08:55:34.928Z,86.70
2018-02-12T08:58:02.404Z,86.39
2018-02-12T09:00:29.844Z,85.64
2018-02-12T09:02:57.332Z,85.51
2018-02-12T09:05:24.738Z,85.94
2018-02-12T09:07:52.184Z,85.40
2018-02-12T09:10:19.588Z,84.52
2018-02-12T09:12:47.008Z,85.53
2018-02-12T09:15:14.452Z,84.44
2018-02-12T09:17:41.894Z,83.93
2018-02-12T09:20:09.349Z,84.29
2018-02-12T09:22:37.750Z,83.96
2018-02-12T09:25:05.169Z,83.67
2018-02-12T09:27:32.667Z,83.12
2018-02-12T09:30:00.121Z,82.90
2018-02-12T09:32:27.588Z,83.67
2018-02-12T09:34:55.133Z,82.99
2018-02-12T09:37:22.538Z,82.19
2018-02-12T09:39:50.040Z,82.32
2018-02-12T09:42:17.470Z,82.58
2018-02-12T09:44:44.919Z,82.54
2018-02-12T09:47:12.404Z,82.29
2018-02-12T09:49:39.833Z,81.72
2018-02-12T09:52:07.311Z,82.14
2018-02-12T09:54:34.701Z,80.71
2018-02-12T09:57:02.121Z,81.21
2018-02-12T09:59:29.550Z,80.99
2018-02-12T10:01:56.980Z,80.73
2018-02-12T10:04:24.400Z,79.92
2018-02-12T10:06:51.812Z,81.41
2018-02-12T10:09:19.229Z,80.81
2018-02-12T10:11:46.664Z,80.79
2018-02-12T10:14:14.086Z,80.27
2018-02-12T10:16:41.492Z,79.91
2018-02-12T10:19:09.286Z,80.74
2018-02-12T10:21:36.693Z,80.47
2018-02-12T10:24:04.109Z,80.07
2018-02-12T10:26:31.527Z,80.02
2018-02-12T10:28:58.937Z,79.05
2018-02-12T10:31:26.352Z,79.42
2018-02-12T10:33:53.792Z,79.51
2018-02-12T10:36:21.249Z,79.40
2018-02-12T10:38:48.661Z,77.38
2018-02-12T10:41:16.159Z,77.95
2018-02-12T10:43:43.622Z,78.06
2018-02-12T10:46:11.076Z,76.16
2018-02-12T10:48:38.510Z,76.07
2018-02-12T10:51:05.995Z,76.83
2018-02-12T10:53:33.419Z,76.52
2018-02-12T10:56:00.865Z,74.09
2018-02-12T10:58:28.337Z,75.10
2018-02-12T11:00:55.749Z,73.75
2018-02-12T11:03:23.156Z,74.20
2018-02-12T11:05:50.570Z,73.48
2018-02-12T11:08:18.050Z,74.38
2018-02-12T11:10:45.462Z,74.63
2018-02-12T11:13:12.885Z,74.18
2018-02-12T11:15:40.304Z,74.28
2018-02-12T11:18:07.725Z,74.14
2018-02-12T11:20:35.213Z,74.08
2018-02-12T11:23:02.629Z,73.37
2018-02-12T11:25:30.092Z,72.57
2018-02-12T11:27:57.532Z,73.19
2018-02-12T11:30:24.986Z,72.62
2018-02-12T11:32:52.418Z,71.55
2018-02-12T11:35:19.828Z,71.39
2018-02-12T11:37:47.281Z,72.25
2018-02-12T11:40:14.749Z,71.81
2018-02-12T11:42:42.154Z,71.14
2018-02-12T11:45:09.568Z,70.74
2018-02-12T11:47:36.992Z,68.95
2018-02-12T11:50:04.402Z,66.60
2018-02-12T11:52:35.263Z,65.89
2018-02-12T11:55:02.632Z,64.02
2018-02-12T11:57:30.064Z,64.75
2018-02-12T11:59:57.481Z,62.59
2018-02-12T12:02:24.969Z,63.02
2018-02-12T12:04:52.383Z,62.68
2018-02-12T12:07:19.805Z,62.63
2018-02-12T12:09:47.220Z,64.79
2018-02-12T12:12:14.621Z,62.17
2018-02-12T12:14:42.032Z,61.74
2018-02-12T12:17:09.677Z,60.70
2018-02-12T12:19:37.076Z,57.62
2018-02-12T12:22:04.505Z,57.98
2018-02-12T12:24:31.976Z,59.34
2018-02-12T12:26:59.398Z,60.11
2018-02-12T12:29:26.848Z,58.23
2018-02-12T12:31:54.268Z,58.93
2018-02-12T12:34:22.323Z,57.48
2018-02-12T12:36:49.712Z,59.31
2018-02-12T12:39:17.140Z,59.15
2018-02-12T12:41:44.569Z,61.40
2018-02-12T12:44:12.096Z,60.93
2018-02-12T12:46:39.556Z,62.30
2018-02-12T12:49:06.980Z,62.42
2018-02-12T12:51:34.457Z,61.83
2018-02-12T12:54:01.887Z,62.45
2018-02-12T12:56:29.321Z,61.72
2018-02-12T12:58:56.736Z,60.15
2018-02-12T13:01:24.188Z,60.14
2018-02-12T13:03:51.597Z,58.36
2018-02-12T13:06:24.752Z,59.91
2018-02-12T13:08:52.157Z,58.95
2018-02-12T13:11:19.602Z,60.82
2018-02-12T13:13:47.019Z,60.04
2018-02-12T13:16:14.438Z,59.28
2018-02-12T13:18:41.880Z,60.46
2018-02-12T13:21:09.293Z,60.02
2018-02-12T13:23:36.741Z,57.98
2018-02-12T13:26:04.144Z,55.91
2018-02-12T13:28:31.558Z,57.51
2018-02-12T13:30:58.995Z,57.52
2018-02-12T13:33:26.400Z,57.34
2018-02-12T13:35:53.853Z,56.89
2018-02-12T13:38:21.250Z,56.67
2018-02-12T13:40:48.658Z,58.30
2018-02-12T13:43:16.073Z,55.14
2018-02-12T13:45:43.483Z,54.92
2018-02-12T13:48:10.917Z,56.06
2018-02-12T13:50:38.325Z,57.99
2018-02-12T13:53:05.748Z,56.27
2018-02-12T13:55:33.165Z,57.36
2018-02-12T13:58:00.573Z,57.87
2018-02-12T14:00:27.984Z,58.16
2018-02-12T14:02:55.394Z,58.42
2018-02-12T14:05:22.852Z,59.08
2018-02-12T14:07:50.276Z,58.67
2018-02-12T14:10:17.705Z,56.04
2018-02-12T14:12:45.425Z,56.96
2018-02-12T14:15:12.880Z,55.17
2018-02-12T14:17:40.309Z,56.07
2018-02-12T14:20:07.724Z,57.06
2018-02-12T14:22:35.184Z,58.46
2018-02-12T14:25:13.065Z,58.94
2018-02-12T14:27:40.509Z,59.51
2018-02-12T14:30:13.501Z,59.69
2018-02-12T14:32:40.943Z,60.47
2018-02-12T14:35:08.380Z,61.34
2018-02-12T14:37:35.857Z,62.84
2018-02-12T14:40:03.288Z,63.06
2018-02-12T14:42:31.204Z,63.12
2018-02-12T14:44:58.682Z,64.23
2018-02-12T14:47:26.080Z,64.49
2018-02-12T14:49:53.485Z,63.68
2018-02-12T14:52:20.953Z,65.99
2018-02-12T14:54:48.377Z,66.33
2018-02-12T14:57:15.799Z,66.16
2018-02-12T14:59:43.253Z,68.09
2018-02-12T15:02:10.672Z,71.37
2018-02-12T15:04:38.102Z,73.84
2018-02-12T15:07:05.549Z,77.00
2018-02-12T15:09:32.951Z,81.30
2018-02-12T15:12:00.414Z,83.79
2018-02-12T15:14:27.839Z,86.52
2018-02-12T15:16:55.304Z,88.64
2018-02-12T15:19:22.777Z,89.18
2018-02-12T15:21:50.217Z,89.61
2018-02-12T15:24:17.645Z,90.11
2018-02-12T15:26:48.875Z,90.02
2018-02-12T15:29:21.592Z,89.20
2018-02-12T15:31:52.755Z,88.10
2018-02-12T15:37:19.104Z,87.36
2018-02-12T15:39:47.109Z,87.58
2018-02-12T15:42:14.532Z,87.73
2018-02-12T15:44:41.980Z,86.90
2018-02-12T15:47:09.591Z,86.72
2018-02-12T15:49:37.054Z,86.12
2018-02-12T15:52:05.326Z,86.82
2018-02-12T15:54:32.772Z,86.72
2018-02-12T15:57:00.199Z,86.79
2018-02-12T15:59:27.629Z,86.82
2018-02-12T16:01:55.136Z,87.21
2018-02-12T16:04:22.589Z,87.75
2018-02-12T16:06:50.040Z,87.88
2018-02-12T16:09:17.504Z,88.21
2018-02-12T16:11:44.919Z,88.37
2018-02-12T16:14:12.372Z,88.42
2018-02-12T16:16:39.818Z,88.69
2018-02-12T16:19:07.327Z,88.72
2018-02-12T16:21:34.759Z,88.79
2018-02-12T16:24:02.200Z,88.78
2018-02-12T16:26:29.683Z,89.05
2018-02-12T16:28:57.128Z,89.52
2018-02-12T16:31:24.627Z,89.33
2018-02-12T16:33:52.029Z,89.49
2018-02-12T16:36:19.472Z,89.48
2018-02-12T16:38:46.912Z,89.76
2018-02-12T16:41:14.353Z,90.14
2018-02-12T16:43:41.817Z,90.95
2018-02-12T16:46:09.229Z,91.09
2018-02-12T16:48:36.676Z,90.73
2018-02-12T16:51:04.131Z,90.36
2018-02-12T16:53:31.558Z,90.27
2018-02-12T16:55:59.003Z,89.87
2018-02-12T16:58:26.437Z,90.29
2018-02-12T17:00:53.857Z,90.27
2018-02-12T17:03:25.165Z,90.40
2018-02-12T17:05:52.608Z,90.67
2018-02-12T17:08:20.060Z,90.54
2018-02-12T17:10:47.474Z,90.61
2018-02-12T17:13:14.908Z,91.09
2018-02-12T17:15:42.359Z,91.14
2018-02-12T17:18:09.768Z,90.90
2018-02-12T17:20:37.252Z,90.77
2018-02-12T17:23:04.673Z,90.31
2018-02-12T17:25:32.107Z,90.83
2018-02-12T17:27:59.528Z,90.95
2018-02-12T17:30:26.964Z,91.28
2018-02-12T17:32:54.467Z,91.42
2018-02-12T17:35:21.920Z,91.44
2018-02-12T17:37:49.340Z,91.79
2018-02-12T17:40:16.803Z,91.73
2018-02-12T17:42:44.208Z,91.80
2018-02-12T17:45:15.422Z,91.66
2018-02-12T17:47:42.833Z,91.67
2018-02-12T17:50:10.282Z,91.38
2018-02-12T17:52:37.696Z,91.11
2018-02-12T17:55:05.169Z,91.01
2018-02-12T17:57:32.639Z,91.29
2018-02-12T18:00:00.694Z,91.74
2018-02-12T18:02:28.150Z,91.61
2018-02-12T18:04:55.566Z,91.84
2018-02-12T18:07:22.984Z,91.85
2018-02-12T18:09:50.556Z,92.04
2018-02-12T18:12:18.026Z,92.26
2018-02-12T18:14:46.724Z,92.28
2018-02-12T18:17:15.564Z,92.51
2018-02-12T18:19:42.989Z,92.34
2018-02-12T18:22:10.413Z,92.24
2018-02-12T18:24:37.865Z,92.35
2018-02-12T18:27:05.284Z,92.52
2018-02-12T18:29:32.728Z,92.37
2018-02-12T18:32:00.156Z,92.23
2018-02-12T18:34:27.651Z,92.99
2018-02-12T18:36:55.052Z,93.07
2018-02-12T18:39:22.563Z,92.84
2018-02-12T18:41:50.148Z,92.65
2018-02-12T18:44:17.554Z,92.54
2018-02-12T18:46:44.972Z,92.60
2018-02-12T18:49:12.396Z,92.12
2018-02-12T18:51:39.833Z,92.26
2018-02-12T18:54:07.256Z,92.20
2018-02-12T18:56:34.680Z,92.49
2018-02-12T18:59:02.105Z,92.28
2018-02-12T19:01:29.527Z,92.35
2018-02-12T19:04:00.614Z,92.74
2018-02-12T19:06:28.032Z,92.74
2018-02-12T19:08:55.669Z,92.61
2018-02-12T19:11:23.103Z,92.30
2018-02-12T19:13:50.520Z,92.35
2018-02-12T19:16:17.966Z,92.04
2018-02-12T19:18:45.769Z,92.12
2018-02-12T19:21:13.194Z,92.23
2018-02-12T19:23:40.648Z,91.96
2018-02-12T19:26:08.050Z,91.92
2018-02-12T19:28:41.997Z,91.69
2018-02-12T19:31:10.397Z,91.66
2018-02-12T19:33:37.821Z,91.79
2018-02-12T19:36:08.393Z,91.87
2018-02-12T19:38:35.870Z,91.84
2018-02-12T19:41:03.341Z,91.80
2018-02-12T19:43:30.762Z,91.90
2018-02-12T19:45:58.190Z,92.05
2018-02-12T19:48:25.605Z,92.32
2018-02-12T19:50:53.025Z,92.36
2018-02-12T19:53:20.468Z,92.51
2018-02-12T19:55:47.884Z,92.35
2018-02-12T19:58:15.303Z,92.26
2018-02-12T20:00:42.867Z,92.30
2018-02-12T20:03:10.283Z,92.13
2018-02-12T20:05:37.728Z,91.93
2018-02-12T20:08:05.158Z,91.73
2018-02-12T20:10:32.611Z,91.49
2018-02-12T20:13:00.000Z,91.48
2018-02-12T20:15:27.812Z,91.72
2018-02-12T20:17:55.276Z,92.03
2018-02-12T20:20:22.700Z,91.77
2018-02-12T20:22:50.119Z,91.74
2018-02-12T20:25:17.580Z,91.78
2018-02-12T20:27:44.992Z,91.72
2018-02-12T20:30:12.458Z,91.86
2018-02-12T20:32:39.860Z,91.75
2018-02-12T20:35:07.279Z,91.53
2018-02-12T20:37:35.140Z,91.36
2018-02-12T20:40:02.533Z,91.21
2018-02-12T20:42:30.008Z,91.39
2018-02-12T20:44:57.447Z,91.02
2018-02-12T20:47:26.894Z,91.04
2018-02-12T20:49:54.325Z,90.82
2018-02-12T20:52:21.748Z,90.79
2018-02-12T20:54:49.272Z,90.67
2018-02-12T20:57:16.708Z,90.49
2018-02-12T20:59:44.144Z,90.89
2018-02-12T21:02:11.564Z,90.71
2018-02-12T21:04:38.986Z,90.58
2018-02-12T21:07:06.412Z,90.39
2018-02-12T21:09:33.869Z,90.10
2018-02-12T21:12:01.292Z,90.51
2018-02-12T21:14:28.716Z,90.45
2018-02-12T21:16:56.166Z,90.37
2018-02-12T21:19:23.584Z,90.49
2018-02-12T21:21:51.489Z,90.22
2018-02-12T21:24:18.913Z,90.21
2018-02-12T21:26:46.359Z,90.17
2018-02-12T21:29:17.695Z,90.46
2018-02-12T21:31:45.115Z,90.38
2018-02-12T21:34:12.535Z,90.29
2018-02-12T21:36:39.981Z,90.39
2018-02-12T21:39:07.778Z,90.18
2018-02-12T21:41:35.215Z,90.13
2018-02-12T21:44:02.704Z,89.77
2018-02-12T21:46:30.124Z,89.71
2018-02-12T21:48:57.556Z,89.82
2018-02-12T21:51:25.007Z,89.75
2018-02-12T21:53:52.417Z,89.75
2018-02-12T21:56:20.114Z,89.34
2018-02-12T21:58:47.544Z,88.96
2018-02-12T22:01:14.960Z,88.97
2018-02-12T22:03:42.780Z,88.96
2018-02-12T22:06:10.198Z,88.86
2018-02-12T22:08:37.631Z,88.80
2018-02-12T22:11:05.065Z,88.38
2018-02-12T22:13:32.494Z,88.14
2018-02-12T22:15:59.909Z,88.16
2018-02-12T22:18:40.949Z,87.80
2018-02-12T22:21:08.384Z,87.67
2018-02-12T22:23:35.808Z,87.54
2018-02-12T22:26:03.251Z,87.65
2018-02-12T22:28:30.714Z,87.32
2018-02-12T22:30:58.157Z,87.12
2018-02-12T22:33:25.575Z,86.94
2018-02-12T22:35:53.042Z,86.50
2018-02-12T22:38:20.457Z,86.25
2018-02-12T22:40:47.886Z,85.98
2018-02-12T22:43:15.317Z,86.21
2018-02-12T22:45:42.761Z,86.49
2018-02-12T22:48:10.170Z,86.22
2018-02-12T22:50:37.581Z,86.19
2018-02-12T22:53:05.001Z,85.98
2018-02-12T22:55:32.429Z,86.06
2018-02-12T22:57:59.878Z,86.06
2018-02-12T23:00:27.329Z,85.64
2018-02-12T23:02:54.745Z,85.39
2018-02-12T23:05:22.153Z,85.16
2018-02-12T23:07:49.603Z,85.23
2018-02-12T23:10:17.116Z,85.10
2018-02-12T23:12:44.562Z,85.17
2018-02-12T23:15:17.488Z,85.38
2018-02-12T23:17:44.922Z,85.49
2018-02-12T23:20:12.330Z,85.30
2018-02-12T23:22:39.752Z,85.33
2018-02-12T23:25:07.184Z,85.40
2018-02-12T23:27:34.633Z,85.27
2018-02-12T23:30:02.053Z,84.99
2018-02-12T23:32:29.461Z,84.78
2018-02-12T23:34:56.877Z,84.79
2018-02-12T23:37:24.305Z,84.72
2018-02-12T23:39:51.972Z,84.81
2018-02-12T23:42:19.423Z,84.60
2018-02-12T23:44:46.837Z,84.50
2018-02-12T23:47:14.257Z,84.31
2018-02-12T23:49:41.687Z,84.30
2018-02-12T23:52:09.177Z,84.49
2018-02-12T23:54:36.625Z,84.50
2018-02-12T23:57:04.045Z,84.04
2018-02-12T23:59:31.485Z,84.16
